sensor_id;sensor_type;location;lat;lon;timestamp;pressure;altitude;pressure_sealevel;temperature;humidity
11327;BME280;5718;42.138;24.762;2023-07-20T00:02:25;99088.66;;;26.48;100.00
11327;BME280;5718;42.138;24.762;2023-07-20T00:04:52;99095.28;;;26.43;100.00
11327;BME280;5718;42.138;24.762;2023-07-20T00:07:18;99117.56;;;26.42;100.00
11327;BME280;5718;42.138;24.762;2023-07-20T00:09:45;99123.50;;;26.45;100.00
11327;BME280;5718;42.138;24.762;2023-07-20T00:12:12;99117.09;;;26.48;100.00
11327;BME280;5718;42.138;24.762;2023-07-20T00:14:39;99119.38;;;26.41;100.00
11327;BME280;5718;42.138;24.762;2023-07-20T00:17:06;99119.00;;;26.58;99.33
11327;BME280;5718;42.138;24.762;2023-07-20T00:19:34;99106.84;;;26.67;97.82
11327;BME280;5718;42.138;24.762;2023-07-20T00:22:01;99094.88;;;26.97;95.84
11327;BME280;5718;42.138;24.762;2023-07-20T00:24:30;99076.34;;;27.19;92.35
11327;BME280;5718;42.138;24.762;2023-07-20T00:26:57;99064.94;;;27.17;91.42
11327;BME280;5718;42.138;24.762;2023-07-20T00:29:23;99046.41;;;27.15;90.92
11327;BME280;5718;42.138;24.762;2023-07-20T00:31:50;99035.06;;;27.36;87.13
11327;BME280;5718;42.138;24.762;2023-07-20T00:34:17;99032.91;;;27.41;85.47
11327;BME280;5718;42.138;24.762;2023-07-20T00:36:45;99038.13;;;27.54;85.29
11327;BME280;5718;42.138;24.762;2023-07-20T00:39:11;99031.09;;;27.53;84.86
11327;BME280;5718;42.138;24.762;2023-07-20T00:41:38;99016.19;;;27.61;84.54
11327;BME280;5718;42.138;24.762;2023-07-20T00:44:05;99017.03;;;27.62;84.19
11327;BME280;5718;42.138;24.762;2023-07-20T00:46:32;99008.59;;;27.68;83.93
11327;BME280;5718;42.138;24.762;2023-07-20T00:48:59;98996.53;;;27.62;81.43
11327;BME280;5718;42.138;24.762;2023-07-20T00:51:26;99003.25;;;27.90;76.85
11327;BME280;5718;42.138;24.762;2023-07-20T00:53:55;99010.53;;;27.99;76.82
11327;BME280;5718;42.138;24.762;2023-07-20T00:56:22;99021.69;;;28.05;76.00
11327;BME280;5718;42.138;24.762;2023-07-20T00:58:49;99028.25;;;28.23;74.65
11327;BME280;5718;42.138;24.762;2023-07-20T01:01:16;99026.78;;;28.19;74.90
11327;BME280;5718;42.138;24.762;2023-07-20T01:03:42;99026.56;;;28.33;74.05
11327;BME280;5718;42.138;24.762;2023-07-20T01:06:15;99029.47;;;28.19;74.70
11327;BME280;5718;42.138;24.762;2023-07-20T01:08:55;99029.25;;;28.33;74.83
11327;BME280;5718;42.138;24.762;2023-07-20T01:11:33;99015.13;;;28.20;75.38
11327;BME280;5718;42.138;24.762;2023-07-20T01:14:03;99016.09;;;28.19;75.60
11327;BME280;5718;42.138;24.762;2023-07-20T01:16:29;99015.88;;;28.22;75.39
11327;BME280;5718;42.138;24.762;2023-07-20T01:18:56;98997.75;;;28.25;75.87
11327;BME280;5718;42.138;24.762;2023-07-20T01:21:27;99001.31;;;28.15;76.90
11327;BME280;5718;42.138;24.762;2023-07-20T01:24:12;98991.47;;;27.93;78.83
11327;BME280;5718;42.138;24.762;2023-07-20T01:27:04;98982.59;;;28.04;77.88
11327;BME280;5718;42.138;24.762;2023-07-20T01:29:49;98983.19;;;28.18;79.37
11327;BME280;5718;42.138;24.762;2023-07-20T01:32:23;98984.19;;;28.06;79.31
11327;BME280;5718;42.138;24.762;2023-07-20T01:34:52;98976.53;;;28.02;79.64
11327;BME280;5718;42.138;24.762;2023-07-20T01:37:21;98972.81;;;27.82;80.98
11327;BME280;5718;42.138;24.762;2023-07-20T01:39:53;98973.13;;;27.66;82.79
11327;BME280;5718;42.138;24.762;2023-07-20T01:42:21;98981.16;;;27.77;83.30
11327;BME280;5718;42.138;24.762;2023-07-20T01:44:50;98983.09;;;27.64;84.93
11327;BME280;5718;42.138;24.762;2023-07-20T01:47:18;98981.16;;;27.66;83.82
11327;BME280;5718;42.138;24.762;2023-07-20T01:49:46;98982.59;;;27.59;84.11
11327;BME280;5718;42.138;24.762;2023-07-20T01:52:13;98975.91;;;27.53;86.38
11327;BME280;5718;42.138;24.762;2023-07-20T01:54:40;98979.16;;;27.46;86.61
11327;BME280;5718;42.138;24.762;2023-07-20T01:57:07;98970.19;;;27.47;86.63
11327;BME280;5718;42.138;24.762;2023-07-20T01:59:33;98969.97;;;27.61;86.54
11327;BME280;5718;42.138;24.762;2023-07-20T02:02:00;98979.91;;;27.59;86.62
11327;BME280;5718;42.138;24.762;2023-07-20T02:04:27;98980.19;;;27.56;86.13
11327;BME280;5718;42.138;24.762;2023-07-20T02:06:55;98981.13;;;27.55;87.40
11327;BME280;5718;42.138;24.762;2023-07-20T02:09:22;98981.38;;;27.63;86.31
11327;BME280;5718;42.138;24.762;2023-07-20T02:11:48;98984.03;;;27.63;87.18
11327;BME280;5718;42.138;24.762;2023-07-20T02:14:15;98982.84;;;27.56;87.65
11327;BME280;5718;42.138;24.762;2023-07-20T02:16:42;98982.94;;;27.54;87.40
11327;BME280;5718;42.138;24.762;2023-07-20T02:19:08;98983.56;;;27.58;87.28
11327;BME280;5718;42.138;24.762;2023-07-20T02:21:36;98985.72;;;27.53;87.66
11327;BME280;5718;42.138;24.762;2023-07-20T02:24:04;98983.53;;;27.47;88.57
11327;BME280;5718;42.138;24.762;2023-07-20T02:26:32;98989.38;;;27.63;86.27
11327;BME280;5718;42.138;24.762;2023-07-20T02:28:58;98993.28;;;27.59;85.94
11327;BME280;5718;42.138;24.762;2023-07-20T02:31:25;98996.63;;;27.38;88.02
11327;BME280;5718;42.138;24.762;2023-07-20T02:33:52;98993.06;;;27.15;90.46
11327;BME280;5718;42.138;24.762;2023-07-20T02:36:18;98996.34;;;26.95;91.80
11327;BME280;5718;42.138;24.762;2023-07-20T02:38:45;98982.03;;;26.85;92.91
11327;BME280;5718;42.138;24.762;2023-07-20T02:41:14;98982.34;;;26.80;92.91
11327;BME280;5718;42.138;24.762;2023-07-20T02:43:40;98973.31;;;27.18;90.75
11327;BME280;5718;42.138;24.762;2023-07-20T02:46:07;98978.13;;;27.13;92.07
11327;BME280;5718;42.138;24.762;2023-07-20T02:48:34;98979.78;;;27.03;90.65
11327;BME280;5718;42.138;24.762;2023-07-20T02:51:01;98979.75;;;26.92;91.05
11327;BME280;5718;42.138;24.762;2023-07-20T02:53:27;98979.34;;;26.85;93.68
11327;BME280;5718;42.138;24.762;2023-07-20T02:55:54;98976.84;;;26.95;92.16
11327;BME280;5718;42.138;24.762;2023-07-20T02:58:22;98971.38;;;27.20;91.35
11327;BME280;5718;42.138;24.762;2023-07-20T03:00:49;98967.97;;;27.18;92.61
11327;BME280;5718;42.138;24.762;2023-07-20T03:03:15;98972.47;;;26.94;93.48
11327;BME280;5718;42.138;24.762;2023-07-20T03:05:42;98967.75;;;26.62;95.72
11327;BME280;5718;42.138;24.762;2023-07-20T03:08:09;98966.09;;;26.72;95.49
11327;BME280;5718;42.138;24.762;2023-07-20T03:10:38;98969.88;;;26.81;92.01
11327;BME280;5718;42.138;24.762;2023-07-20T03:13:06;98976.13;;;26.93;94.65
11327;BME280;5718;42.138;24.762;2023-07-20T03:15:34;98973.06;;;26.86;95.69
11327;BME280;5718;42.138;24.762;2023-07-20T03:18:01;98978.47;;;26.73;96.46
11327;BME280;5718;42.138;24.762;2023-07-20T03:20:28;98975.44;;;26.78;95.17
11327;BME280;5718;42.138;24.762;2023-07-20T03:22:55;98970.13;;;26.78;94.48
11327;BME280;5718;42.138;24.762;2023-07-20T03:25:21;98961.00;;;26.69;93.92
11327;BME280;5718;42.138;24.762;2023-07-20T03:27:48;98965.69;;;26.90;93.53
11327;BME280;5718;42.138;24.762;2023-07-20T03:30:15;98971.63;;;26.93;94.39
11327;BME280;5718;42.138;24.762;2023-07-20T03:32:43;98970.16;;;26.89;96.36
11327;BME280;5718;42.138;24.762;2023-07-20T03:35:10;98965.72;;;27.01;96.33
11327;BME280;5718;42.138;24.762;2023-07-20T03:37:36;98961.31;;;26.88;96.84
11327;BME280;5718;42.138;24.762;2023-07-20T03:40:04;98958.00;;;26.74;97.05
11327;BME280;5718;42.138;24.762;2023-07-20T03:42:32;98953.69;;;26.84;96.99
11327;BME280;5718;42.138;24.762;2023-07-20T03:44:59;98949.44;;;26.81;96.83
11327;BME280;5718;42.138;24.762;2023-07-20T03:47:26;98953.88;;;27.05;96.12
11327;BME280;5718;42.138;24.762;2023-07-20T03:49:54;98949.97;;;26.98;96.77
11327;BME280;5718;42.138;24.762;2023-07-20T03:52:21;98948.88;;;27.00;97.25
11327;BME280;5718;42.138;24.762;2023-07-20T03:54:47;98944.00;;;26.94;97.71
11327;BME280;5718;42.138;24.762;2023-07-20T03:57:14;98947.31;;;26.98;100.00
11327;BME280;5718;42.138;24.762;2023-07-20T03:59:44;98957.69;;;27.25;97.98
11327;BME280;5718;42.138;24.762;2023-07-20T04:02:11;98961.41;;;27.11;100.00
11327;BME280;5718;42.138;24.762;2023-07-20T04:04:38;98959.63;;;27.23;100.00
11327;BME280;5718;42.138;24.762;2023-07-20T04:07:06;98954.06;;;27.37;98.99
11327;BME280;5718;42.138;24.762;2023-07-20T04:09:33;98962.22;;;27.58;95.87
11327;BME280;5718;42.138;24.762;2023-07-20T04:12:00;98959.31;;;27.72;90.19
11327;BME280;5718;42.138;24.762;2023-07-20T04:14:27;98963.19;;;27.79;89.66
11327;BME280;5718;42.138;24.762;2023-07-20T04:16:53;98961.84;;;27.96;89.63
11327;BME280;5718;42.138;24.762;2023-07-20T04:19:20;98965.63;;;27.93;91.52
11327;BME280;5718;42.138;24.762;2023-07-20T04:21:47;98967.09;;;27.86;93.18
11327;BME280;5718;42.138;24.762;2023-07-20T04:24:15;98973.16;;;27.99;90.49
11327;BME280;5718;42.138;24.762;2023-07-20T04:26:42;98970.34;;;28.12;87.66
11327;BME280;5718;42.138;24.762;2023-07-20T04:29:08;98967.91;;;28.09;90.91
11327;BME280;5718;42.138;24.762;2023-07-20T04:31:35;98980.03;;;28.13;92.08
11327;BME280;5718;42.138;24.762;2023-07-20T04:34:02;98978.84;;;28.17;91.05
11327;BME280;5718;42.138;24.762;2023-07-20T04:36:29;98982.00;;;28.22;93.48
11327;BME280;5718;42.138;24.762;2023-07-20T04:38:56;98980.44;;;27.97;91.65
11327;BME280;5718;42.138;24.762;2023-07-20T04:41:24;98979.47;;;27.76;88.92
11327;BME280;5718;42.138;24.762;2023-07-20T04:43:51;98978.94;;;27.60;90.32
11327;BME280;5718;42.138;24.762;2023-07-20T04:46:18;98982.22;;;27.52;90.02
11327;BME280;5718;42.138;24.762;2023-07-20T04:48:46;98988.66;;;27.50;90.21
11327;BME280;5718;42.138;24.762;2023-07-20T04:51:13;98983.72;;;27.21;92.41
11327;BME280;5718;42.138;24.762;2023-07-20T04:53:40;98988.84;;;27.24;94.77
11327;BME280;5718;42.138;24.762;2023-07-20T04:56:06;98997.72;;;27.36;94.12
11327;BME280;5718;42.138;24.762;2023-07-20T04:58:35;98997.56;;;27.26;98.74
11327;BME280;5718;42.138;24.762;2023-07-20T05:01:02;99007.28;;;27.38;96.00
11327;BME280;5718;42.138;24.762;2023-07-20T05:03:29;99001.41;;;27.57;92.62
11327;BME280;5718;42.138;24.762;2023-07-20T05:05:56;98996.91;;;27.58;92.70
11327;BME280;5718;42.138;24.762;2023-07-20T05:08:23;98999.72;;;27.67;96.09
11327;BME280;5718;42.138;24.762;2023-07-20T05:10:50;99004.84;;;27.82;93.73
11327;BME280;5718;42.138;24.762;2023-07-20T05:13:17;99002.88;;;27.95;92.11
11327;BME280;5718;42.138;24.762;2023-07-20T05:15:45;98999.47;;;28.15;90.05
11327;BME280;5718;42.138;24.762;2023-07-20T05:18:12;98995.47;;;28.10;89.96
11327;BME280;5718;42.138;24.762;2023-07-20T05:20:38;98984.28;;;28.27;91.98
11327;BME280;5718;42.138;24.762;2023-07-20T05:23:05;98996.06;;;28.24;88.28
11327;BME280;5718;42.138;24.762;2023-07-20T05:25:32;98994.13;;;28.26;88.42
11327;BME280;5718;42.138;24.762;2023-07-20T05:27:59;98985.50;;;28.34;88.76
11327;BME280;5718;42.138;24.762;2023-07-20T05:30:26;98986.75;;;28.30;88.91
11327;BME280;5718;42.138;24.762;2023-07-20T05:32:56;98982.88;;;28.66;84.00
11327;BME280;5718;42.138;24.762;2023-07-20T05:35:23;98984.69;;;28.66;84.98
11327;BME280;5718;42.138;24.762;2023-07-20T05:37:49;98983.53;;;28.47;82.37
11327;BME280;5718;42.138;24.762;2023-07-20T05:40:16;98983.56;;;28.36;82.41
11327;BME280;5718;42.138;24.762;2023-07-20T05:42:44;98985.97;;;28.28;82.30
11327;BME280;5718;42.138;24.762;2023-07-20T05:45:12;98978.25;;;28.68;81.44
11327;BME280;5718;42.138;24.762;2023-07-20T05:47:39;98983.78;;;28.76;79.64
11327;BME280;5718;42.138;24.762;2023-07-20T05:50:08;98970.09;;;28.70;82.39
11327;BME280;5718;42.138;24.762;2023-07-20T05:52:35;98965.78;;;28.90;79.52
11327;BME280;5718;42.138;24.762;2023-07-20T05:55:01;98964.34;;;29.27;78.56
11327;BME280;5718;42.138;24.762;2023-07-20T05:57:28;98968.44;;;29.73;74.16
11327;BME280;5718;42.138;24.762;2023-07-20T05:59:55;98958.22;;;29.88;71.25
11327;BME280;5718;42.138;24.762;2023-07-20T06:02:22;98965.81;;;29.92;73.05
11327;BME280;5718;42.138;24.762;2023-07-20T06:04:49;98967.25;;;29.97;70.07
11327;BME280;5718;42.138;24.762;2023-07-20T06:07:17;98957.41;;;30.07;70.57
11327;BME280;5718;42.138;24.762;2023-07-20T06:09:44;98953.25;;;30.24;69.22
11327;BME280;5718;42.138;24.762;2023-07-20T06:12:11;98951.41;;;29.84;70.01
11327;BME280;5718;42.138;24.762;2023-07-20T06:14:38;98958.00;;;30.10;69.00
11327;BME280;5718;42.138;24.762;2023-07-20T06:17:05;98950.06;;;29.99;67.94
11327;BME280;5718;42.138;24.762;2023-07-20T06:19:32;98951.50;;;30.72;64.80
11327;BME280;5718;42.138;24.762;2023-07-20T06:21:59;98949.94;;;30.80;63.46
11327;BME280;5718;42.138;24.762;2023-07-20T06:24:27;98945.72;;;30.87;63.37
11327;BME280;5718;42.138;24.762;2023-07-20T06:26:53;98945.00;;;30.85;64.04
11327;BME280;5718;42.138;24.762;2023-07-20T06:29:20;98944.56;;;30.99;62.83
11327;BME280;5718;42.138;24.762;2023-07-20T06:31:47;98941.91;;;30.80;62.48
11327;BME280;5718;42.138;24.762;2023-07-20T06:34:14;98940.16;;;31.08;60.76
11327;BME280;5718;42.138;24.762;2023-07-20T06:36:40;98944.75;;;31.54;58.29
11327;BME280;5718;42.138;24.762;2023-07-20T06:39:07;98941.34;;;31.62;58.62
11327;BME280;5718;42.138;24.762;2023-07-20T06:41:35;98948.34;;;31.82;56.92
11327;BME280;5718;42.138;24.762;2023-07-20T06:44:02;98944.09;;;32.34;52.59
11327;BME280;5718;42.138;24.762;2023-07-20T06:46:29;98944.66;;;32.38;53.53
11327;BME280;5718;42.138;24.762;2023-07-20T06:48:55;98937.41;;;32.74;52.76
11327;BME280;5718;42.138;24.762;2023-07-20T06:51:22;98944.81;;;32.54;53.26
11327;BME280;5718;42.138;24.762;2023-07-20T06:53:49;98936.66;;;32.46;53.34
11327;BME280;5718;42.138;24.762;2023-07-20T06:56:16;98943.28;;;32.69;52.25
11327;BME280;5718;42.138;24.762;2023-07-20T06:58:45;98942.44;;;32.69;52.82
11327;BME280;5718;42.138;24.762;2023-07-20T07:04:33;98941.53;;;33.22;49.13
11327;BME280;5718;42.138;24.762;2023-07-20T07:06:59;98945.09;;;33.48;48.06
11327;BME280;5718;42.138;24.762;2023-07-20T07:09:27;98947.41;;;33.69;47.06
11327;BME280;5718;42.138;24.762;2023-07-20T07:11:54;98939.84;;;33.21;47.79
11327;BME280;5718;42.138;24.762;2023-07-20T07:14:22;98940.19;;;33.00;50.59
11327;BME280;5718;42.138;24.762;2023-07-20T07:16:49;98947.47;;;33.08;49.05
11327;BME280;5718;42.138;24.762;2023-07-20T07:19:16;98934.22;;;32.70;50.21
11327;BME280;5718;42.138;24.762;2023-07-20T07:21:43;98925.81;;;33.35;50.16
11327;BME280;5718;42.138;24.762;2023-07-20T07:24:09;98932.75;;;33.38;48.82
11327;BME280;5718;42.138;24.762;2023-07-20T07:26:36;98930.31;;;33.35;49.27
11327;BME280;5718;42.138;24.762;2023-07-20T07:29:03;98931.16;;;33.53;47.71
11327;BME280;5718;42.138;24.762;2023-07-20T07:31:34;98931.75;;;32.95;48.82
11327;BME280;5718;42.138;24.762;2023-07-20T07:34:04;98927.38;;;33.20;48.05
11327;BME280;5718;42.138;24.762;2023-07-20T07:36:31;98928.53;;;33.17;48.06
11327;BME280;5718;42.138;24.762;2023-07-20T07:38:58;98924.03;;;33.44;46.52
11327;BME280;5718;42.138;24.762;2023-07-20T07:41:24;98930.34;;;33.61;45.56
11327;BME280;5718;42.138;24.762;2023-07-20T07:43:50;98924.81;;;33.36;46.36
11327;BME280;5718;42.138;24.762;2023-07-20T07:46:17;98933.44;;;33.22;47.80
11327;BME280;5718;42.138;24.762;2023-07-20T07:48:45;98921.06;;;33.29;47.03
11327;BME280;5718;42.138;24.762;2023-07-20T07:51:12;98925.09;;;33.07;47.96
11327;BME280;5718;42.138;24.762;2023-07-20T07:53:40;98924.59;;;33.56;48.11
11327;BME280;5718;42.138;24.762;2023-07-20T07:56:07;98926.47;;;33.89;46.33
11327;BME280;5718;42.138;24.762;2023-07-20T07:58:34;98923.13;;;33.35;47.06
11327;BME280;5718;42.138;24.762;2023-07-20T08:01:01;98930.72;;;33.40;47.46
11327;BME280;5718;42.138;24.762;2023-07-20T08:03:28;98924.66;;;33.72;46.81
11327;BME280;5718;42.138;24.762;2023-07-20T08:05:56;98928.06;;;34.16;45.53
11327;BME280;5718;42.138;24.762;2023-07-20T08:08:24;98929.47;;;34.36;44.07
11327;BME280;5718;42.138;24.762;2023-07-20T08:10:53;98934.28;;;35.00;43.64
11327;BME280;5718;42.138;24.762;2023-07-20T08:13:20;98926.66;;;35.19;42.82
11327;BME280;5718;42.138;24.762;2023-07-20T08:15:49;98931.44;;;35.01;41.97
11327;BME280;5718;42.138;24.762;2023-07-20T08:18:16;98936.25;;;34.65;42.13
11327;BME280;5718;42.138;24.762;2023-07-20T08:20:48;98938.81;;;34.08;43.75
11327;BME280;5718;42.138;24.762;2023-07-20T08:23:16;98926.91;;;34.19;43.81
11327;BME280;5718;42.138;24.762;2023-07-20T08:25:43;98925.06;;;33.85;43.96
11327;BME280;5718;42.138;24.762;2023-07-20T08:28:14;98932.59;;;34.16;44.15
11327;BME280;5718;42.138;24.762;2023-07-20T08:30:41;98932.69;;;34.40;43.85
11327;BME280;5718;42.138;24.762;2023-07-20T08:33:09;98936.72;;;34.36;44.17
11327;BME280;5718;42.138;24.762;2023-07-20T08:35:36;98935.06;;;34.01;43.94
11327;BME280;5718;42.138;24.762;2023-07-20T08:38:03;98938.97;;;34.81;42.06
11327;BME280;5718;42.138;24.762;2023-07-20T08:40:32;98939.50;;;34.85;41.82
11327;BME280;5718;42.138;24.762;2023-07-20T08:42:59;98934.41;;;34.82;42.46
11327;BME280;5718;42.138;24.762;2023-07-20T08:45:27;98932.25;;;35.18;41.94
11327;BME280;5718;42.138;24.762;2023-07-20T08:47:56;98936.94;;;35.24;42.33
11327;BME280;5718;42.138;24.762;2023-07-20T08:50:25;98936.44;;;34.80;42.33
11327;BME280;5718;42.138;24.762;2023-07-20T08:52:52;98935.44;;;35.22;42.00
11327;BME280;5718;42.138;24.762;2023-07-20T08:55:20;98933.41;;;35.24;41.17
11327;BME280;5718;42.138;24.762;2023-07-20T08:57:50;98923.97;;;34.62;43.28
11327;BME280;5718;42.138;24.762;2023-07-20T09:00:19;98923.88;;;34.30;44.23
11327;BME280;5718;42.138;24.762;2023-07-20T09:02:48;98918.56;;;34.71;42.91
11327;BME280;5718;42.138;24.762;2023-07-20T09:05:15;98908.59;;;34.47;44.11
11327;BME280;5718;42.138;24.762;2023-07-20T09:07:42;98911.78;;;35.32;42.35
11327;BME280;5718;42.138;24.762;2023-07-20T09:10:10;98900.81;;;35.41;41.83
11327;BME280;5718;42.138;24.762;2023-07-20T09:12:37;98886.31;;;35.73;41.68
11327;BME280;5718;42.138;24.762;2023-07-20T09:15:07;98887.63;;;35.94;40.64
11327;BME280;5718;42.138;24.762;2023-07-20T09:17:34;98883.25;;;35.29;41.70
11327;BME280;5718;42.138;24.762;2023-07-20T09:20:02;98896.44;;;35.80;41.16
11327;BME280;5718;42.138;24.762;2023-07-20T09:22:34;98892.63;;;36.59;39.93
11327;BME280;5718;42.138;24.762;2023-07-20T09:25:01;98885.03;;;36.77;39.26
11327;BME280;5718;42.138;24.762;2023-07-20T09:27:35;98886.50;;;36.42;39.46
11327;BME280;5718;42.138;24.762;2023-07-20T09:30:03;98873.50;;;36.38;40.05
11327;BME280;5718;42.138;24.762;2023-07-20T09:32:38;98865.44;;;36.75;38.98
11327;BME280;5718;42.138;24.762;2023-07-20T09:35:06;98855.25;;;36.09;40.19
11327;BME280;5718;42.138;24.762;2023-07-20T09:37:33;98862.78;;;35.90;40.25
11327;BME280;5718;42.138;24.762;2023-07-20T09:40:00;98861.13;;;36.43;38.99
11327;BME280;5718;42.138;24.762;2023-07-20T09:42:27;98860.72;;;36.23;40.14
11327;BME280;5718;42.138;24.762;2023-07-20T09:44:54;98854.56;;;36.61;39.16
11327;BME280;5718;42.138;24.762;2023-07-20T09:47:21;98848.97;;;36.39;38.81
11327;BME280;5718;42.138;24.762;2023-07-20T09:49:50;98843.31;;;36.26;39.96
11327;BME280;5718;42.138;24.762;2023-07-20T09:52:21;98853.16;;;36.19;39.38
11327;BME280;5718;42.138;24.762;2023-07-20T09:54:49;98850.19;;;36.37;39.47
11327;BME280;5718;42.138;24.762;2023-07-20T09:57:16;98845.97;;;36.95;39.44
11327;BME280;5718;42.138;24.762;2023-07-20T09:59:42;98836.16;;;36.94;39.67
11327;BME280;5718;42.138;24.762;2023-07-20T10:02:15;98832.00;;;37.35;38.00
11327;BME280;5718;42.138;24.762;2023-07-20T10:04:46;98833.44;;;37.23;39.24
11327;BME280;5718;42.138;24.762;2023-07-20T10:07:16;98830.28;;;37.05;38.72
11327;BME280;5718;42.138;24.762;2023-07-20T10:09:44;98830.31;;;36.67;39.31
11327;BME280;5718;42.138;24.762;2023-07-20T10:12:11;98821.66;;;36.26;39.99
11327;BME280;5718;42.138;24.762;2023-07-20T10:14:41;98814.28;;;36.57;39.15
11327;BME280;5718;42.138;24.762;2023-07-20T10:17:11;98821.13;;;36.91;39.06
11327;BME280;5718;42.138;24.762;2023-07-20T10:19:42;98807.13;;;37.32;38.92
11327;BME280;5718;42.138;24.762;2023-07-20T10:22:12;98803.38;;;37.18;38.72
11327;BME280;5718;42.138;24.762;2023-07-20T10:24:45;98795.75;;;37.36;39.32
11327;BME280;5718;42.138;24.762;2023-07-20T10:27:12;98793.63;;;37.68;38.99
11327;BME280;5718;42.138;24.762;2023-07-20T10:29:40;98796.78;;;37.86;37.61
11327;BME280;5718;42.138;24.762;2023-07-20T10:32:08;98790.00;;;37.61;37.50
11327;BME280;5718;42.138;24.762;2023-07-20T10:34:35;98784.16;;;37.79;37.14
11327;BME280;5718;42.138;24.762;2023-07-20T10:37:02;98784.66;;;37.67;37.79
11327;BME280;5718;42.138;24.762;2023-07-20T10:39:31;98785.84;;;37.65;37.07
11327;BME280;5718;42.138;24.762;2023-07-20T10:42:03;98778.44;;;37.37;38.58
11327;BME280;5718;42.138;24.762;2023-07-20T10:44:33;98782.78;;;37.68;36.77
11327;BME280;5718;42.138;24.762;2023-07-20T10:47:00;98786.63;;;37.59;36.53
11327;BME280;5718;42.138;24.762;2023-07-20T10:49:28;98770.69;;;37.71;36.15
11327;BME280;5718;42.138;24.762;2023-07-20T10:51:59;98774.00;;;37.66;35.80
11327;BME280;5718;42.138;24.762;2023-07-20T10:54:47;98772.22;;;36.55;37.54
11327;BME280;5718;42.138;24.762;2023-07-20T10:57:29;98763.09;;;37.30;37.20
11327;BME280;5718;42.138;24.762;2023-07-20T11:00:10;98767.00;;;37.57;36.43
11327;BME280;5718;42.138;24.762;2023-07-20T11:02:48;98753.03;;;37.38;37.16
11327;BME280;5718;42.138;24.762;2023-07-20T11:05:39;98749.28;;;37.25;37.35
11327;BME280;5718;42.138;24.762;2023-07-20T11:08:10;98745.16;;;36.70;38.12
11327;BME280;5718;42.138;24.762;2023-07-20T11:10:37;98750.88;;;36.90;35.79
11327;BME280;5718;42.138;24.762;2023-07-20T11:13:21;98753.41;;;37.35;35.71
11327;BME280;5718;42.138;24.762;2023-07-20T11:16:03;98745.16;;;37.44;34.41
11327;BME280;5718;42.138;24.762;2023-07-20T11:18:33;98758.97;;;38.06;32.50
11327;BME280;5718;42.138;24.762;2023-07-20T11:21:01;98754.22;;;38.08;32.86
11327;BME280;5718;42.138;24.762;2023-07-20T11:23:29;98757.78;;;37.73;32.98
11327;BME280;5718;42.138;24.762;2023-07-20T11:25:57;98755.50;;;38.12;31.90
11327;BME280;5718;42.138;24.762;2023-07-20T11:28:29;98743.91;;;38.46;31.74
11327;BME280;5718;42.138;24.762;2023-07-20T11:30:56;98740.97;;;39.04;31.87
11327;BME280;5718;42.138;24.762;2023-07-20T11:33:23;98725.91;;;38.67;31.75
11327;BME280;5718;42.138;24.762;2023-07-20T11:35:50;98729.47;;;37.97;32.20
11327;BME280;5718;42.138;24.762;2023-07-20T11:38:18;98719.19;;;37.71;32.79
11327;BME280;5718;42.138;24.762;2023-07-20T11:40:45;98711.78;;;37.79;33.08
11327;BME280;5718;42.138;24.762;2023-07-20T11:43:12;98725.44;;;38.14;32.89
11327;BME280;5718;42.138;24.762;2023-07-20T11:45:41;98728.78;;;38.59;31.97
11327;BME280;5718;42.138;24.762;2023-07-20T11:48:14;98726.63;;;38.54;32.86
11327;BME280;5718;42.138;24.762;2023-07-20T11:50:41;98728.63;;;39.01;31.47
11327;BME280;5718;42.138;24.762;2023-07-20T11:53:08;98719.75;;;38.86;31.72
11327;BME280;5718;42.138;24.762;2023-07-20T11:55:35;98710.75;;;39.20;31.26
11327;BME280;5718;42.138;24.762;2023-07-20T11:58:03;98714.78;;;39.31;31.14
11327;BME280;5718;42.138;24.762;2023-07-20T12:00:31;98717.06;;;39.27;31.38
11327;BME280;5718;42.138;24.762;2023-07-20T12:03:05;98711.28;;;38.68;32.09
11327;BME280;5718;42.138;24.762;2023-07-20T12:05:32;98698.00;;;38.52;31.96
11327;BME280;5718;42.138;24.762;2023-07-20T12:07:59;98699.13;;;39.40;30.98
11327;BME280;5718;42.138;24.762;2023-07-20T12:10:27;98698.41;;;39.72;30.72
11327;BME280;5718;42.138;24.762;2023-07-20T12:12:54;98697.63;;;39.37;31.02
11327;BME280;5718;42.138;24.762;2023-07-20T12:15:22;98680.97;;;38.99;31.52
11327;BME280;5718;42.138;24.762;2023-07-20T12:17:50;98678.78;;;39.29;31.48
11327;BME280;5718;42.138;24.762;2023-07-20T12:20:26;98676.53;;;38.57;32.74
11327;BME280;5718;42.138;24.762;2023-07-20T12:22:56;98665.06;;;38.96;32.58
11327;BME280;5718;42.138;24.762;2023-07-20T12:25:23;98667.38;;;39.05;32.73
11327;BME280;5718;42.138;24.762;2023-07-20T12:27:50;98655.72;;;39.12;31.74
11327;BME280;5718;42.138;24.762;2023-07-20T12:30:16;98647.69;;;38.97;31.95
11327;BME280;5718;42.138;24.762;2023-07-20T12:32:43;98643.69;;;38.86;32.86
11327;BME280;5718;42.138;24.762;2023-07-20T12:35:10;98631.34;;;39.38;31.52
11327;BME280;5718;42.138;24.762;2023-07-20T12:37:41;98628.00;;;39.43;31.93
11327;BME280;5718;42.138;24.762;2023-07-20T12:40:08;98624.22;;;39.24;31.93
11327;BME280;5718;42.138;24.762;2023-07-20T12:42:36;98612.56;;;39.63;30.92
11327;BME280;5718;42.138;24.762;2023-07-20T12:45:04;98623.28;;;39.65;31.46
11327;BME280;5718;42.138;24.762;2023-07-20T12:47:31;98609.03;;;39.76;30.97
11327;BME280;5718;42.138;24.762;2023-07-20T12:49:58;98622.91;;;39.07;32.19
11327;BME280;5718;42.138;24.762;2023-07-20T12:52:25;98615.50;;;38.87;32.59
11327;BME280;5718;42.138;24.762;2023-07-20T12:54:53;98626.72;;;39.19;32.59
11327;BME280;5718;42.138;24.762;2023-07-20T12:57:19;98617.31;;;39.28;32.59
11327;BME280;5718;42.138;24.762;2023-07-20T12:59:46;98616.25;;;39.22;32.23
11327;BME280;5718;42.138;24.762;2023-07-20T13:02:13;98617.34;;;39.41;31.93
11327;BME280;5718;42.138;24.762;2023-07-20T13:04:39;98626.59;;;38.92;32.57
11327;BME280;5718;42.138;24.762;2023-07-20T13:07:09;98633.63;;;38.80;32.36
11327;BME280;5718;42.138;24.762;2023-07-20T13:09:37;98634.97;;;38.91;32.40